»·PEaware :: N701DB KIFP-KMRY

N701DB :: KIFP-KMRY

FLIGHT INFORMATION

Flight Status: Arrived
Operator: Privately registered:
United States
More flights under this callsign
Pilot: Ryan B. (8502)
Aircraft: GULFSTREAM G-1159C GULFSTREAM 4
(GLF4)
More flights by this aircraft type
Origin: KIFP Laughlin/Bullhead Intl
United States
Destination: KMRY Monterey Peninsula
United States
More flights between these airports :: More routes between these airports
Route: +WIGGL
File this flight plan on PilotEdge
Remarks:
Altitude:
(Current/Filed)
36,000ft
Speed:
(Current/Filed)
482kts
Departed: 03-Nov-17 03:45 PM
Arrived: 03-Nov-17 04:51 PM
Distance/Time
Traveled:
365nm/1:06
Distance/Time
To Go:
Arrived

Flight Plot

Page will automatically refresh every two minutes.

Flight plan parsing failed; only flown route is shown


Map Options




Map Legend


Flown Route
Filed Route
Departure Airport
Arrival Airport
Navaid (VOR, NDB)
Fix

Horizontal Profiles

Position Reports

Time Latitude Longitude Heading Altitude Ground
Speed
03-Nov-17 15:39 35.156267 -114.555884 176 693ft 0kts
03-Nov-17 15:40 35.156267 -114.555884 176 693ft 0kts
03-Nov-17 15:41 35.156267 -114.555884 176 693ft 0kts
03-Nov-17 15:42 35.156267 -114.555884 176 693ft 0kts
03-Nov-17 15:43 35.156267 -114.555884 176 693ft 0kts
03-Nov-17 15:44 35.156267 -114.555884 176 693ft 0kts
03-Nov-17 15:45 35.156267 -114.555884 176 693ft 0kts
03-Nov-17 15:46 35.156267 -114.555884 176 693ft 0kts
03-Nov-17 15:47 35.155951 -114.556654 270 689ft 14kts
03-Nov-17 15:48 35.160160 -114.558349 356 664ft 28kts
03-Nov-17 15:49 35.166039 -114.560209 208 631ft 1kts
03-Nov-17 15:50 35.139510 -114.557863 176 2961ft 189kts
03-Nov-17 15:51 35.092251 -114.545074 167 6825ft 209kts
03-Nov-17 15:52 35.024274 -114.523311 170 9969ft 290kts
03-Nov-17 15:53 34.942021 -114.497039 181 16140ft 340kts
03-Nov-17 15:54 34.845484 -114.487096 198 22042ft 357kts
03-Nov-17 15:55 34.775460 -114.554627 261 27169ft 357kts
03-Nov-17 15:56 34.792834 -114.677180 263 31498ft 376kts
03-Nov-17 15:57 34.793910 -114.806213 264 34791ft 391kts
03-Nov-17 15:58 34.795084 -114.940395 264 36043ft 407kts
03-Nov-17 15:59 34.796276 -115.079368 264 36050ft 416kts
03-Nov-17 16:00 34.797341 -115.220087 263 36048ft 420kts
03-Nov-17 16:01 34.798118 -115.360839 263 36739ft 416kts
03-Nov-17 16:02 34.798663 -115.499261 263 38043ft 413kts
03-Nov-17 16:03 34.798991 -115.641090 264 38110ft 423kts
03-Nov-17 16:04 34.799139 -115.776816 263 38147ft 423kts
03-Nov-17 16:05 34.799161 -115.919275 263 38145ft 423kts
03-Nov-17 16:06 34.798937 -116.062038 263 38143ft 423kts
03-Nov-17 16:07 34.798530 -116.204401 263 38131ft 423kts
03-Nov-17 16:08 34.797858 -116.346552 263 38080ft 423kts
03-Nov-17 16:09 34.794462 -116.488713 257 38057ft 417kts
03-Nov-17 16:10 34.780935 -116.628398 258 38049ft 418kts
03-Nov-17 16:11 34.767484 -116.764673 257 38065ft 418kts
03-Nov-17 16:12 34.753929 -116.900721 257 40020ft 405kts
03-Nov-17 16:13 34.740081 -117.038112 256 40084ft 414kts
03-Nov-17 16:14 34.725912 -117.176569 256 40101ft 416kts
03-Nov-17 16:15 34.711578 -117.315254 256 40100ft 416kts
03-Nov-17 16:16 34.697049 -117.454306 256 40099ft 416kts
03-Nov-17 16:17 34.682369 -117.592997 256 40095ft 416kts
03-Nov-17 16:18 34.667725 -117.730353 256 40095ft 416kts
03-Nov-17 16:19 34.652797 -117.868603 256 40082ft 416kts
03-Nov-17 16:20 34.637928 -118.004963 255 40094ft 415kts
03-Nov-17 16:21 34.683697 -118.136695 295 40103ft 485kts
03-Nov-17 16:22 34.767301 -118.259801 297 40086ft 491kts
03-Nov-17 16:23 34.854019 -118.385542 297 40090ft 490kts
03-Nov-17 16:24 34.941149 -118.512335 298 40115ft 489kts
03-Nov-17 16:25 35.024284 -118.640150 287 40129ft 464kts
03-Nov-17 16:26 35.086895 -118.773407 288 40127ft 467kts
03-Nov-17 16:27 35.150436 -118.908055 288 40080ft 468kts
03-Nov-17 16:28 35.214287 -119.043851 289 40069ft 473kts
03-Nov-17 16:29 35.276577 -119.176792 289 40068ft 474kts
03-Nov-17 16:30 35.341428 -119.315804 289 40067ft 474kts
03-Nov-17 16:31 35.406489 -119.455855 289 40066ft 474kts
03-Nov-17 16:32 35.471262 -119.595846 289 40064ft 474kts
03-Nov-17 16:33 35.535054 -119.734276 288 40079ft 473kts
03-Nov-17 16:34 35.599463 -119.874618 288 40082ft 473kts
03-Nov-17 16:35 35.659606 -120.014807 280 40100ft 459kts
03-Nov-17 16:36 35.707205 -120.161470 282 40085ft 463kts
03-Nov-17 16:37 35.754992 -120.307475 282 40084ft 463kts
03-Nov-17 16:38 35.802559 -120.453542 282 40082ft 464kts
03-Nov-17 16:39 35.850258 -120.600695 282 40080ft 463kts
03-Nov-17 16:40 35.896841 -120.744940 281 36190ft 449kts
03-Nov-17 16:41 35.940781 -120.882018 281 31948ft 417kts
03-Nov-17 16:42 35.989473 -121.007218 304 28796ft 426kts
03-Nov-17 16:43 36.089269 -121.086463 330 25774ft 437kts
03-Nov-17 16:44 36.176200 -121.152716 317 23134ft 405kts
03-Nov-17 16:45 36.259746 -121.223784 319 19139ft 378kts
03-Nov-17 16:46 36.341028 -121.293239 321 13935ft 351kts
03-Nov-17 16:47 36.398800 -121.342375 322 10134ft 330kts
03-Nov-17 16:48 36.433801 -121.403295 293 7787ft 266kts
03-Nov-17 16:49 36.467225 -121.486906 295 6104ft 268kts
03-Nov-17 16:50 36.491318 -121.563128 293 5898ft 221kts
03-Nov-17 16:51 36.509040 -121.614435 293 5214ft 205kts
03-Nov-17 16:52 36.530626 -121.677877 294 4179ft 194kts
03-Nov-17 16:53 36.551471 -121.737378 292 3106ft 178kts
03-Nov-17 16:54 36.568076 -121.788767 293 1797ft 152kts
03-Nov-17 16:55 36.582596 -121.831439 294 450ft 125kts
03-Nov-17 16:56 36.590926 -121.856150 268 155ft 21kts
03-Nov-17 16:57 36.589224 -121.858465 246 162ft 6kts
03-Nov-17 16:58 36.588188 -121.860597 166 166ft 1kts
03-Nov-17 16:59 36.588117 -121.860593 172 166ft 0kts
03-Nov-17 17:00 36.588117 -121.860593 172 166ft 0kts
03-Nov-17 17:01 36.588117 -121.860593 172 166ft 0kts
03-Nov-17 17:02 36.588117 -121.860593 172 166ft 0kts
03-Nov-17 17:03 36.588117 -121.860593 172 166ft 0kts
03-Nov-17 17:04 36.588117 -121.860593 172 166ft 0kts
03-Nov-17 17:05 36.588117 -121.860593 172 166ft 0kts
03-Nov-17 17:06 36.588117 -121.860593 172 166ft 0kts
03-Nov-17 17:07 36.588117 -121.860593 172 166ft 0kts
03-Nov-17 17:08 36.588117 -121.860593 172 166ft 0kts
03-Nov-17 17:09 36.588117 -121.860593 172 166ft 0kts
03-Nov-17 17:10 36.588117 -121.860593 172 166ft 0kts
03-Nov-17 17:11 36.588117 -121.860593 172 166ft 0kts

Navigation Log

Ident Type
Flight plan parsing failed, navigation log unavailable